Milwaukee, Wisconsin
Traffic Map
Current Weather Conditions
Milwaukee, Wisconsin
Scattered Clouds
Scattered Clouds
27°
Feels Like: 16°
Wind Chill: 16° Ceiling: Unl
Heat Index: 27° Visibility: 8mi
Dew Point: 13° Wind: 14mph
Humidity: 56% Direction: 240° (WSW)
Pressure: 30.23in Gusts: 0mph
Raw Report DataKMKE 012052Z 24012KT 8SM FEW028 FEW160 SCT250 M03/M11 A3023 RMK AO2 SLP250 T10281106 56027 $
Traffic Incident Summary
Active as of:
Severity:
Category:
InformationThere was an issue retrieving the traffic information for this location. Please try a different location or try again shortly.
Advertisements
Track Severe Weather on mobile